sensor_id;sensor_type;location;lat;lon;timestamp;pressure;altitude;pressure_sealevel;temperature;humidity
13974;BME280;7060;43.770;4.008;2022-12-07T00:01:44;101077.16;;;0.74;72.43
13974;BME280;7060;43.770;4.008;2022-12-07T00:04:16;101073.28;;;0.63;72.78
13974;BME280;7060;43.770;4.008;2022-12-07T00:06:46;101074.38;;;0.59;72.92
13974;BME280;7060;43.770;4.008;2022-12-07T00:09:16;101029.59;;;0.42;72.76
13974;BME280;7060;43.770;4.008;2022-12-07T00:11:48;101067.06;;;0.64;73.12
13974;BME280;7060;43.770;4.008;2022-12-07T00:14:18;101065.06;;;0.69;73.17
13974;BME280;7060;43.770;4.008;2022-12-07T00:16:49;101062.28;;;0.73;72.95
13974;BME280;7060;43.770;4.008;2022-12-07T00:19:18;101051.84;;;0.71;73.20
13974;BME280;7060;43.770;4.008;2022-12-07T00:21:46;101055.47;;;0.68;72.73
13974;BME280;7060;43.770;4.008;2022-12-07T00:24:15;101050.53;;;0.62;72.98
13974;BME280;7060;43.770;4.008;2022-12-07T00:26:43;101046.28;;;0.60;73.03
13974;BME280;7060;43.770;4.008;2022-12-07T00:29:16;101038.38;;;0.60;73.13
13974;BME280;7060;43.770;4.008;2022-12-07T00:31:45;101034.91;;;0.59;73.03
13974;BME280;7060;43.770;4.008;2022-12-07T00:34:15;101003.13;;;0.45;74.01
13974;BME280;7060;43.770;4.008;2022-12-07T00:36:44;101038.75;;;0.69;73.96
13974;BME280;7060;43.770;4.008;2022-12-07T00:39:13;100991.47;;;0.51;73.88
13974;BME280;7060;43.770;4.008;2022-12-07T00:41:41;101028.78;;;0.76;74.22
13974;BME280;7060;43.770;4.008;2022-12-07T00:44:10;101023.38;;;0.79;74.32
13974;BME280;7060;43.770;4.008;2022-12-07T00:46:39;101022.94;;;0.88;74.54
13974;BME280;7060;43.770;4.008;2022-12-07T00:49:08;101030.41;;;0.96;74.54
13974;BME280;7060;43.770;4.008;2022-12-07T00:51:36;101019.66;;;1.00;74.90
13974;BME280;7060;43.770;4.008;2022-12-07T00:54:04;101006.34;;;1.03;74.75
13974;BME280;7060;43.770;4.008;2022-12-07T00:56:33;101012.63;;;1.01;74.84
13974;BME280;7060;43.770;4.008;2022-12-07T00:59:03;101023.00;;;1.04;75.22
13974;BME280;7060;43.770;4.008;2022-12-07T01:01:32;101020.81;;;1.12;75.13
13974;BME280;7060;43.770;4.008;2022-12-07T01:04:04;101021.25;;;1.20;75.14
13974;BME280;7060;43.770;4.008;2022-12-07T01:06:33;101016.69;;;1.24;74.62
13974;BME280;7060;43.770;4.008;2022-12-07T01:09:01;101017.47;;;1.26;74.76
13974;BME280;7060;43.770;4.008;2022-12-07T01:11:30;101011.34;;;1.25;74.57
13974;BME280;7060;43.770;4.008;2022-12-07T01:13:59;100996.91;;;1.17;74.51
13974;BME280;7060;43.770;4.008;2022-12-07T01:16:30;101005.22;;;1.25;74.25
13974;BME280;7060;43.770;4.008;2022-12-07T01:18:59;101008.00;;;1.22;74.82
13974;BME280;7060;43.770;4.008;2022-12-07T01:21:31;101011.56;;;1.21;74.71
13974;BME280;7060;43.770;4.008;2022-12-07T01:24:02;101007.44;;;1.17;74.50
13974;BME280;7060;43.770;4.008;2022-12-07T01:26:31;101002.69;;;1.06;74.43
13974;BME280;7060;43.770;4.008;2022-12-07T01:28:59;101011.53;;;1.05;74.36
13974;BME280;7060;43.770;4.008;2022-12-07T01:31:28;101019.50;;;1.03;74.57
13974;BME280;7060;43.770;4.008;2022-12-07T01:33:58;101016.25;;;0.98;74.02
13974;BME280;7060;43.770;4.008;2022-12-07T01:36:28;100995.91;;;0.85;74.33
13974;BME280;7060;43.770;4.008;2022-12-07T01:39:00;101007.81;;;0.92;74.36
13974;BME280;7060;43.770;4.008;2022-12-07T01:41:32;101017.50;;;0.91;74.42
13974;BME280;7060;43.770;4.008;2022-12-07T01:44:18;101020.88;;;0.93;74.30
13974;BME280;7060;43.770;4.008;2022-12-07T01:46:48;101016.31;;;0.97;74.77
13974;BME280;7060;43.770;4.008;2022-12-07T01:49:26;101023.00;;;1.04;74.85
13974;BME280;7060;43.770;4.008;2022-12-07T01:52:00;101000.59;;;0.95;74.92
13974;BME280;7060;43.770;4.008;2022-12-07T01:54:31;101010.44;;;1.09;74.78
13974;BME280;7060;43.770;4.008;2022-12-07T01:57:01;101011.28;;;1.10;74.73
13974;BME280;7060;43.770;4.008;2022-12-07T01:59:31;101006.19;;;1.07;74.77
13974;BME280;7060;43.770;4.008;2022-12-07T02:02:00;101005.19;;;1.09;74.54
13974;BME280;7060;43.770;4.008;2022-12-07T02:04:30;101007.44;;;1.17;74.73
13974;BME280;7060;43.770;4.008;2022-12-07T02:06:59;101009.22;;;1.16;74.65
13974;BME280;7060;43.770;4.008;2022-12-07T02:09:28;101016.25;;;1.16;74.72
13974;BME280;7060;43.770;4.008;2022-12-07T02:11:58;101017.88;;;1.18;74.78
13974;BME280;7060;43.770;4.008;2022-12-07T02:14:27;101016.19;;;1.17;74.80
13974;BME280;7060;43.770;4.008;2022-12-07T02:17:05;101016.34;;;1.14;74.26
13974;BME280;7060;43.770;4.008;2022-12-07T02:20:11;101014.16;;;1.05;74.78
13974;BME280;7060;43.770;4.008;2022-12-07T02:23:00;101018.88;;;0.98;75.01
13974;BME280;7060;43.770;4.008;2022-12-07T02:25:59;101018.88;;;0.98;75.05
13974;BME280;7060;43.770;4.008;2022-12-07T02:28:34;101009.91;;;1.02;74.92
13974;BME280;7060;43.770;4.008;2022-12-07T02:31:08;101007.81;;;0.92;74.30
13974;BME280;7060;43.770;4.008;2022-12-07T02:33:43;101016.09;;;1.01;74.05
13974;BME280;7060;43.770;4.008;2022-12-07T02:36:17;101014.94;;;0.90;73.91
13974;BME280;7060;43.770;4.008;2022-12-07T02:38:54;101015.41;;;0.81;74.19
13974;BME280;7060;43.770;4.008;2022-12-07T02:41:29;101005.97;;;0.77;74.26
13974;BME280;7060;43.770;4.008;2022-12-07T02:44:00;101005.09;;;0.76;74.13
13974;BME280;7060;43.770;4.008;2022-12-07T02:46:34;101010.22;;;0.79;74.49
13974;BME280;7060;43.770;4.008;2022-12-07T02:49:05;101006.72;;;0.79;74.56
13974;BME280;7060;43.770;4.008;2022-12-07T02:51:38;101001.16;;;0.85;75.00
13974;BME280;7060;43.770;4.008;2022-12-07T02:54:11;100999.31;;;0.87;74.93
13974;BME280;7060;43.770;4.008;2022-12-07T02:56:47;100998.31;;;0.89;74.95
13974;BME280;7060;43.770;4.008;2022-12-07T02:59:23;100994.56;;;0.93;74.94
13974;BME280;7060;43.770;4.008;2022-12-07T03:02:01;100993.31;;;1.00;74.77
13974;BME280;7060;43.770;4.008;2022-12-07T03:04:43;100986.91;;;1.06;74.63
13974;BME280;7060;43.770;4.008;2022-12-07T03:07:23;100958.75;;;0.91;74.82
13974;BME280;7060;43.770;4.008;2022-12-07T03:10:00;100991.78;;;1.14;74.64
13974;BME280;7060;43.770;4.008;2022-12-07T03:12:34;100990.59;;;1.19;74.24
13974;BME280;7060;43.770;4.008;2022-12-07T03:15:07;100988.91;;;1.18;74.47
13974;BME280;7060;43.770;4.008;2022-12-07T03:17:40;100991.13;;;1.26;74.20
13974;BME280;7060;43.770;4.008;2022-12-07T03:20:16;100985.78;;;1.27;74.18
13974;BME280;7060;43.770;4.008;2022-12-07T03:22:47;100987.47;;;1.28;74.03
13974;BME280;7060;43.770;4.008;2022-12-07T03:25:16;100983.22;;;1.26;74.02
13974;BME280;7060;43.770;4.008;2022-12-07T03:27:50;100978.28;;;1.20;74.36
13974;BME280;7060;43.770;4.008;2022-12-07T03:30:24;100970.63;;;1.15;74.21
13974;BME280;7060;43.770;4.008;2022-12-07T03:32:59;100974.91;;;1.18;73.96
13974;BME280;7060;43.770;4.008;2022-12-07T03:35:33;100973.34;;;1.14;73.82
13974;BME280;7060;43.770;4.008;2022-12-07T03:38:12;100983.81;;;1.15;73.91
13974;BME280;7060;43.770;4.008;2022-12-07T03:40:46;100975.06;;;1.15;74.29
13974;BME280;7060;43.770;4.008;2022-12-07T03:43:18;100976.06;;;1.12;74.29
13974;BME280;7060;43.770;4.008;2022-12-07T03:45:55;100986.50;;;1.14;74.14
13974;BME280;7060;43.770;4.008;2022-12-07T03:48:32;100993.50;;;1.15;74.29
13974;BME280;7060;43.770;4.008;2022-12-07T03:51:08;100993.50;;;1.15;74.31
13974;BME280;7060;43.770;4.008;2022-12-07T03:53:44;100884.53;;;0.50;74.31
13974;BME280;7060;43.770;4.008;2022-12-07T03:56:15;100995.28;;;1.14;74.33
13974;BME280;7060;43.770;4.008;2022-12-07T03:58:43;100997.75;;;1.17;74.60
13974;BME280;7060;43.770;4.008;2022-12-07T04:01:12;100993.22;;;1.19;74.59
13974;BME280;7060;43.770;4.008;2022-12-07T04:03:41;100988.13;;;1.16;74.68
13974;BME280;7060;43.770;4.008;2022-12-07T04:06:10;101001.31;;;1.16;74.59
13974;BME280;7060;43.770;4.008;2022-12-07T04:08:38;100997.91;;;1.14;74.75
13974;BME280;7060;43.770;4.008;2022-12-07T04:11:07;100995.50;;;1.10;74.75
13974;BME280;7060;43.770;4.008;2022-12-07T04:13:35;100987.69;;;1.08;74.36
13974;BME280;7060;43.770;4.008;2022-12-07T04:16:23;100984.34;;;1.04;74.51
13974;BME280;7060;43.770;4.008;2022-12-07T04:18:53;100986.97;;;1.04;74.10
13974;BME280;7060;43.770;4.008;2022-12-07T04:21:22;100981.16;;;0.98;74.06
13974;BME280;7060;43.770;4.008;2022-12-07T04:23:51;100970.28;;;0.88;73.83
13974;BME280;7060;43.770;4.008;2022-12-07T04:26:19;100973.84;;;0.87;74.37
13974;BME280;7060;43.770;4.008;2022-12-07T04:28:47;100965.88;;;0.89;74.29
13974;BME280;7060;43.770;4.008;2022-12-07T04:31:16;100962.38;;;0.88;74.41
13974;BME280;7060;43.770;4.008;2022-12-07T04:33:44;100966.03;;;0.86;74.30
13974;BME280;7060;43.770;4.008;2022-12-07T04:36:14;100962.47;;;0.87;74.29
13974;BME280;7060;43.770;4.008;2022-12-07T04:38:42;100963.38;;;0.86;74.03
13974;BME280;7060;43.770;4.008;2022-12-07T04:41:11;100964.63;;;0.79;74.00
13974;BME280;7060;43.770;4.008;2022-12-07T04:43:39;100964.69;;;0.77;74.16
13974;BME280;7060;43.770;4.008;2022-12-07T04:46:07;100951.94;;;0.69;74.49
13974;BME280;7060;43.770;4.008;2022-12-07T04:48:36;100959.38;;;0.79;74.45
13974;BME280;7060;43.770;4.008;2022-12-07T04:51:04;100959.28;;;0.80;74.30
13974;BME280;7060;43.770;4.008;2022-12-07T04:53:34;100960.13;;;0.81;74.39
13974;BME280;7060;43.770;4.008;2022-12-07T04:56:03;100919.38;;;0.55;74.06
13974;BME280;7060;43.770;4.008;2022-12-07T04:58:31;100959.38;;;0.79;74.39
13974;BME280;7060;43.770;4.008;2022-12-07T05:00:59;100964.56;;;0.80;74.40
13974;BME280;7060;43.770;4.008;2022-12-07T05:03:28;100949.69;;;0.79;74.48
13974;BME280;7060;43.770;4.008;2022-12-07T05:05:56;100958.97;;;0.86;74.48
13974;BME280;7060;43.770;4.008;2022-12-07T05:08:24;100929.94;;;0.70;74.43
13974;BME280;7060;43.770;4.008;2022-12-07T05:10:54;100964.09;;;0.89;74.43
13974;BME280;7060;43.770;4.008;2022-12-07T05:13:22;100968.44;;;0.90;74.48
13974;BME280;7060;43.770;4.008;2022-12-07T05:15:51;100961.28;;;0.92;74.15
13974;BME280;7060;43.770;4.008;2022-12-07T05:18:20;100960.53;;;0.90;74.21
13974;BME280;7060;43.770;4.008;2022-12-07T05:20:48;100968.09;;;0.79;74.38
13974;BME280;7060;43.770;4.008;2022-12-07T05:23:18;100949.94;;;0.57;74.15
13974;BME280;7060;43.770;4.008;2022-12-07T05:25:46;100970.69;;;0.63;74.21
13974;BME280;7060;43.770;4.008;2022-12-07T05:28:16;100964.63;;;0.61;73.96
13974;BME280;7060;43.770;4.008;2022-12-07T05:30:44;100966.00;;;0.51;73.39
13974;BME280;7060;43.770;4.008;2022-12-07T05:33:13;100957.81;;;0.75;72.82
13974;BME280;7060;43.770;4.008;2022-12-07T05:35:42;100961.53;;;0.53;73.19
13974;BME280;7060;43.770;4.008;2022-12-07T05:38:11;100970.50;;;0.49;73.86
13974;BME280;7060;43.770;4.008;2022-12-07T05:40:39;100962.59;;;0.49;74.02
13974;BME280;7060;43.770;4.008;2022-12-07T05:43:07;100964.16;;;0.53;73.43
13974;BME280;7060;43.770;4.008;2022-12-07T05:45:37;100959.97;;;0.49;73.20
13974;BME280;7060;43.770;4.008;2022-12-07T05:48:06;100957.50;;;0.46;73.35
13974;BME280;7060;43.770;4.008;2022-12-07T05:50:34;100947.19;;;0.42;73.67
13974;BME280;7060;43.770;4.008;2022-12-07T05:53:02;100938.94;;;0.32;73.53
13974;BME280;7060;43.770;4.008;2022-12-07T05:55:30;100945.81;;;0.34;73.52
13974;BME280;7060;43.770;4.008;2022-12-07T05:57:59;100948.53;;;0.33;73.62
13974;BME280;7060;43.770;4.008;2022-12-07T06:00:46;100942.47;;;0.31;74.11
13974;BME280;7060;43.770;4.008;2022-12-07T06:03:17;100940.47;;;0.36;74.68
13974;BME280;7060;43.770;4.008;2022-12-07T06:05:45;100949.69;;;0.45;75.22
13974;BME280;7060;43.770;4.008;2022-12-07T06:08:14;100940.72;;;0.49;75.68
13974;BME280;7060;43.770;4.008;2022-12-07T06:10:42;100942.03;;;0.57;75.91
13974;BME280;7060;43.770;4.008;2022-12-07T06:13:11;100944.25;;;0.65;76.04
13974;BME280;7060;43.770;4.008;2022-12-07T06:15:38;100942.19;;;0.72;76.30
13974;BME280;7060;43.770;4.008;2022-12-07T06:18:08;100938.38;;;0.77;76.11
13974;BME280;7060;43.770;4.008;2022-12-07T06:20:36;100942.66;;;0.80;76.38
13974;BME280;7060;43.770;4.008;2022-12-07T06:23:05;100941.78;;;0.79;76.36
13974;BME280;7060;43.770;4.008;2022-12-07T06:25:33;100949.38;;;0.85;76.31
13974;BME280;7060;43.770;4.008;2022-12-07T06:28:02;100949.22;;;0.88;76.63
13974;BME280;7060;43.770;4.008;2022-12-07T06:30:30;100948.38;;;0.88;76.78
13974;BME280;7060;43.770;4.008;2022-12-07T06:32:58;100949.06;;;0.91;76.71
13974;BME280;7060;43.770;4.008;2022-12-07T06:35:28;100952.44;;;0.93;76.71
13974;BME280;7060;43.770;4.008;2022-12-07T06:37:56;100950.50;;;0.97;76.75
13974;BME280;7060;43.770;4.008;2022-12-07T06:40:24;100959.19;;;0.99;76.57
13974;BME280;7060;43.770;4.008;2022-12-07T06:42:53;100967.78;;;1.02;76.72
13974;BME280;7060;43.770;4.008;2022-12-07T06:45:21;100972.03;;;1.05;76.48
13974;BME280;7060;43.770;4.008;2022-12-07T06:47:49;100968.41;;;1.08;76.30
13974;BME280;7060;43.770;4.008;2022-12-07T06:50:18;100973.44;;;1.12;76.67
13974;BME280;7060;43.770;4.008;2022-12-07T06:52:47;100975.81;;;1.17;76.07
13974;BME280;7060;43.770;4.008;2022-12-07T06:55:16;100956.63;;;1.15;76.26
13974;BME280;7060;43.770;4.008;2022-12-07T06:57:44;100963.59;;;1.16;76.18
13974;BME280;7060;43.770;4.008;2022-12-07T07:00:14;100960.88;;;1.17;75.76
13974;BME280;7060;43.770;4.008;2022-12-07T07:02:48;100960.09;;;1.15;75.74
13974;BME280;7060;43.770;4.008;2022-12-07T07:05:16;100960.19;;;1.14;75.98
13974;BME280;7060;43.770;4.008;2022-12-07T07:07:44;100960.25;;;1.12;75.60
13974;BME280;7060;43.770;4.008;2022-12-07T07:10:35;100961.19;;;1.11;75.71
13974;BME280;7060;43.770;4.008;2022-12-07T07:13:03;100963.66;;;1.14;75.83
13974;BME280;7060;43.770;4.008;2022-12-07T07:15:33;100968.59;;;1.20;75.46
13974;BME280;7060;43.770;4.008;2022-12-07T07:18:01;100975.47;;;1.23;75.33
13974;BME280;7060;43.770;4.008;2022-12-07T07:20:34;100973.63;;;1.25;75.23
13974;BME280;7060;43.770;4.008;2022-12-07T07:23:02;100951.09;;;1.19;75.16
13974;BME280;7060;43.770;4.008;2022-12-07T07:25:31;100964.47;;;1.32;75.08
13974;BME280;7060;43.770;4.008;2022-12-07T07:28:01;100971.38;;;1.34;75.22
13974;BME280;7060;43.770;4.008;2022-12-07T07:30:29;100970.44;;;1.35;75.14
13974;BME280;7060;43.770;4.008;2022-12-07T07:32:58;100972.06;;;1.38;75.14
13974;BME280;7060;43.770;4.008;2022-12-07T07:35:28;100977.94;;;1.43;75.29
13974;BME280;7060;43.770;4.008;2022-12-07T07:37:57;100983.88;;;1.47;75.51
13974;BME280;7060;43.770;4.008;2022-12-07T07:40:26;100982.63;;;1.54;75.30
13974;BME280;7060;43.770;4.008;2022-12-07T07:42:56;100977.94;;;1.59;75.08
13974;BME280;7060;43.770;4.008;2022-12-07T07:45:26;100927.50;;;1.33;75.00
13974;BME280;7060;43.770;4.008;2022-12-07T07:47:55;100984.44;;;1.85;74.87
13974;BME280;7060;43.770;4.008;2022-12-07T07:50:23;100980.84;;;2.01;75.42
13974;BME280;7060;43.770;4.008;2022-12-07T07:52:51;100981.72;;;2.18;74.46
13974;BME280;7060;43.770;4.008;2022-12-07T07:55:20;100984.97;;;2.23;72.95
13974;BME280;7060;43.770;4.008;2022-12-07T07:57:48;100984.69;;;2.27;72.81
13974;BME280;7060;43.770;4.008;2022-12-07T08:00:21;100983.47;;;2.33;73.01
13974;BME280;7060;43.770;4.008;2022-12-07T08:02:52;100982.13;;;2.42;72.92
13974;BME280;7060;43.770;4.008;2022-12-07T08:05:21;100986.28;;;2.46;72.13
13974;BME280;7060;43.770;4.008;2022-12-07T08:07:49;100982.53;;;2.50;72.15
13974;BME280;7060;43.770;4.008;2022-12-07T08:10:18;100989.34;;;2.54;71.84
13974;BME280;7060;43.770;4.008;2022-12-07T08:12:46;100990.75;;;2.59;72.44
13974;BME280;7060;43.770;4.008;2022-12-07T08:15:32;100986.25;;;2.61;72.18
13974;BME280;7060;43.770;4.008;2022-12-07T08:18:02;100990.31;;;2.67;72.30
13974;BME280;7060;43.770;4.008;2022-12-07T08:20:31;100986.38;;;2.74;72.54
13974;BME280;7060;43.770;4.008;2022-12-07T08:23:00;100984.41;;;2.78;71.99
13974;BME280;7060;43.770;4.008;2022-12-07T08:25:29;100980.78;;;2.94;71.88
13974;BME280;7060;43.770;4.008;2022-12-07T08:27:57;100975.81;;;3.18;72.13
13974;BME280;7060;43.770;4.008;2022-12-07T08:30:25;100988.09;;;3.48;71.65
13974;BME280;7060;43.770;4.008;2022-12-07T08:32:54;100983.75;;;3.75;70.93
13974;BME280;7060;43.770;4.008;2022-12-07T08:35:24;100974.63;;;4.07;69.16
13974;BME280;7060;43.770;4.008;2022-12-07T08:37:53;100980.88;;;4.33;68.43
13974;BME280;7060;43.770;4.008;2022-12-07T08:40:21;100982.56;;;4.61;67.58
13974;BME280;7060;43.770;4.008;2022-12-07T08:42:50;100991.72;;;4.83;66.08
13974;BME280;7060;43.770;4.008;2022-12-07T08:45:20;100995.59;;;4.91;64.97
13974;BME280;7060;43.770;4.008;2022-12-07T08:47:55;100982.06;;;4.82;63.97
13974;BME280;7060;43.770;4.008;2022-12-07T08:50:28;100999.84;;;4.79;62.83
13974;BME280;7060;43.770;4.008;2022-12-07T08:52:58;100998.16;;;4.66;62.84
13974;BME280;7060;43.770;4.008;2022-12-07T08:55:28;100947.16;;;4.23;63.79
13974;BME280;7060;43.770;4.008;2022-12-07T08:57:57;100948.31;;;4.19;64.16
13974;BME280;7060;43.770;4.008;2022-12-07T09:00:26;100995.53;;;4.52;64.29
13974;BME280;7060;43.770;4.008;2022-12-07T09:02:55;101003.63;;;4.63;64.17
13974;BME280;7060;43.770;4.008;2022-12-07T09:05:23;100996.75;;;4.60;63.87
13974;BME280;7060;43.770;4.008;2022-12-07T09:07:56;100994.66;;;4.65;64.93
13974;BME280;7060;43.770;4.008;2022-12-07T09:10:28;100996.16;;;4.69;64.29
13974;BME280;7060;43.770;4.008;2022-12-07T09:12:56;100995.19;;;4.70;63.50
13974;BME280;7060;43.770;4.008;2022-12-07T09:15:27;101002.38;;;4.68;63.55
13974;BME280;7060;43.770;4.008;2022-12-07T09:17:56;101003.34;;;4.67;63.74
13974;BME280;7060;43.770;4.008;2022-12-07T09:20:24;100999.31;;;4.74;63.97
13974;BME280;7060;43.770;4.008;2022-12-07T09:22:55;101003.16;;;4.83;63.27
13974;BME280;7060;43.770;4.008;2022-12-07T09:25:23;101003.69;;;4.88;64.10
13974;BME280;7060;43.770;4.008;2022-12-07T09:27:55;101006.81;;;4.95;64.09
13974;BME280;7060;43.770;4.008;2022-12-07T09:30:25;100985.00;;;4.91;64.41
13974;BME280;7060;43.770;4.008;2022-12-07T09:32:53;100996.97;;;5.09;63.70
13974;BME280;7060;43.770;4.008;2022-12-07T09:35:23;100981.81;;;4.99;63.61
13974;BME280;7060;43.770;4.008;2022-12-07T09:37:51;100997.72;;;5.11;63.64
13974;BME280;7060;43.770;4.008;2022-12-07T09:40:22;101002.63;;;5.18;63.17
13974;BME280;7060;43.770;4.008;2022-12-07T09:42:52;100994.56;;;5.19;63.22
13974;BME280;7060;43.770;4.008;2022-12-07T09:45:24;100982.06;;;5.21;63.36
13974;BME280;7060;43.770;4.008;2022-12-07T09:47:54;101000.50;;;5.35;62.96
13974;BME280;7060;43.770;4.008;2022-12-07T09:50:25;100989.38;;;5.43;62.39
13974;BME280;7060;43.770;4.008;2022-12-07T09:53:07;100981.84;;;5.50;62.99
13974;BME280;7060;43.770;4.008;2022-12-07T09:55:38;100980.00;;;5.63;62.17
13974;BME280;7060;43.770;4.008;2022-12-07T09:58:19;100974.16;;;5.70;61.44
13974;BME280;7060;43.770;4.008;2022-12-07T10:00:48;100971.94;;;5.77;61.11
13974;BME280;7060;43.770;4.008;2022-12-07T10:03:16;100968.50;;;5.88;61.35
13974;BME280;7060;43.770;4.008;2022-12-07T10:05:46;100943.50;;;5.79;60.77
13974;BME280;7060;43.770;4.008;2022-12-07T10:08:16;100954.34;;;6.00;60.64
13974;BME280;7060;43.770;4.008;2022-12-07T10:10:50;100966.38;;;6.17;61.16
13974;BME280;7060;43.770;4.008;2022-12-07T10:13:21;100951.53;;;6.14;59.47
13974;BME280;7060;43.770;4.008;2022-12-07T10:15:51;100978.25;;;6.24;59.81
13974;BME280;7060;43.770;4.008;2022-12-07T10:18:31;100944.41;;;6.14;59.84
13974;BME280;7060;43.770;4.008;2022-12-07T10:21:17;100966.13;;;6.32;59.26
13974;BME280;7060;43.770;4.008;2022-12-07T10:24:00;100948.09;;;6.25;59.58
13974;BME280;7060;43.770;4.008;2022-12-07T10:26:33;100958.09;;;6.45;58.68
13974;BME280;7060;43.770;4.008;2022-12-07T10:29:04;100959.16;;;6.42;57.73
13974;BME280;7060;43.770;4.008;2022-12-07T10:31:42;100971.25;;;6.46;58.13
13974;BME280;7060;43.770;4.008;2022-12-07T10:34:21;100959.97;;;6.56;58.74
13974;BME280;7060;43.770;4.008;2022-12-07T10:36:52;100898.78;;;6.33;59.47
13974;BME280;7060;43.770;4.008;2022-12-07T10:39:21;100943.94;;;6.68;58.33
13974;BME280;7060;43.770;4.008;2022-12-07T10:41:56;100931.53;;;6.80;58.24
13974;BME280;7060;43.770;4.008;2022-12-07T10:44:26;100929.03;;;6.90;58.13
13974;BME280;7060;43.770;4.008;2022-12-07T10:47:24;100925.16;;;6.94;58.13
13974;BME280;7060;43.770;4.008;2022-12-07T10:53:19;100916.25;;;7.06;56.86
13974;BME280;7060;43.770;4.008;2022-12-07T10:56:08;100911.66;;;7.08;56.48
13974;BME280;7060;43.770;4.008;2022-12-07T10:58:52;100909.97;;;7.07;55.48
13974;BME280;7060;43.770;4.008;2022-12-07T11:01:30;100916.34;;;7.04;56.27
13974;BME280;7060;43.770;4.008;2022-12-07T11:04:17;100915.28;;;7.07;55.39
13974;BME280;7060;43.770;4.008;2022-12-07T11:06:53;100909.59;;;7.00;55.46
13974;BME280;7060;43.770;4.008;2022-12-07T11:09:36;100902.09;;;7.05;56.15
13974;BME280;7060;43.770;4.008;2022-12-07T11:12:37;100899.56;;;7.04;55.41
13974;BME280;7060;43.770;4.008;2022-12-07T11:15:16;100891.00;;;7.11;55.05
13974;BME280;7060;43.770;4.008;2022-12-07T11:17:49;100881.09;;;7.13;55.82
13974;BME280;7060;43.770;4.008;2022-12-07T11:20:37;100876.63;;;7.14;55.02
13974;BME280;7060;43.770;4.008;2022-12-07T11:23:16;100878.91;;;7.19;55.64
13974;BME280;7060;43.770;4.008;2022-12-07T11:25:54;100873.22;;;7.23;54.99
13974;BME280;7060;43.770;4.008;2022-12-07T11:28:33;100874.66;;;7.27;54.20
13974;BME280;7060;43.770;4.008;2022-12-07T11:31:12;100855.81;;;7.30;54.75
13974;BME280;7060;43.770;4.008;2022-12-07T11:33:53;100855.38;;;7.36;54.40
13974;BME280;7060;43.770;4.008;2022-12-07T11:36:36;100852.47;;;7.39;53.19
13974;BME280;7060;43.770;4.008;2022-12-07T11:39:23;100847.50;;;7.35;54.20
13974;BME280;7060;43.770;4.008;2022-12-07T11:42:00;100854.41;;;7.37;53.90
13974;BME280;7060;43.770;4.008;2022-12-07T11:44:33;100845.34;;;7.40;53.71
13974;BME280;7060;43.770;4.008;2022-12-07T11:47:08;100845.94;;;7.43;54.76
13974;BME280;7060;43.770;4.008;2022-12-07T11:49:43;100848.94;;;7.50;55.16
13974;BME280;7060;43.770;4.008;2022-12-07T11:52:20;100840.59;;;7.55;53.56
13974;BME280;7060;43.770;4.008;2022-12-07T11:54:52;100844.81;;;7.57;53.84
13974;BME280;7060;43.770;4.008;2022-12-07T11:57:26;100845.66;;;7.58;53.42
13974;BME280;7060;43.770;4.008;2022-12-07T12:00:00;100836.09;;;7.55;53.42
13974;BME280;7060;43.770;4.008;2022-12-07T12:02:37;100844.22;;;7.54;53.82
13974;BME280;7060;43.770;4.008;2022-12-07T12:05:15;100838.16;;;7.52;53.28
13974;BME280;7060;43.770;4.008;2022-12-07T12:07:46;100835.50;;;7.52;53.15
13974;BME280;7060;43.770;4.008;2022-12-07T12:10:45;100834.16;;;7.57;52.91
13974;BME280;7060;43.770;4.008;2022-12-07T12:17:16;100842.41;;;7.54;53.00
13974;BME280;7060;43.770;4.008;2022-12-07T12:20:01;100833.81;;;7.51;53.46
13974;BME280;7060;43.770;4.008;2022-12-07T12:22:36;100833.31;;;7.57;53.77
13974;BME280;7060;43.770;4.008;2022-12-07T12:25:06;100825.22;;;7.58;53.88
13974;BME280;7060;43.770;4.008;2022-12-07T12:27:39;100832.84;;;7.63;53.96
13974;BME280;7060;43.770;4.008;2022-12-07T12:30:26;100825.56;;;7.65;54.03
13974;BME280;7060;43.770;4.008;2022-12-07T12:33:03;100787.88;;;7.48;54.45
13974;BME280;7060;43.770;4.008;2022-12-07T12:35:35;100813.47;;;7.72;54.32
13974;BME280;7060;43.770;4.008;2022-12-07T12:38:29;100817.69;;;7.74;53.19
13974;BME280;7060;43.770;4.008;2022-12-07T12:40:58;100820.19;;;7.76;53.68
13974;BME280;7060;43.770;4.008;2022-12-07T12:43:59;100823.88;;;7.75;53.35
13974;BME280;7060;43.770;4.008;2022-12-07T12:46:47;100814.19;;;7.74;54.24
13974;BME280;7060;43.770;4.008;2022-12-07T12:52:56;100823.16;;;7.73;53.61
13974;BME280;7060;43.770;4.008;2022-12-07T12:58:35;100810.88;;;7.81;53.82
13974;BME280;7060;43.770;4.008;2022-12-07T13:01:40;100808.81;;;7.85;52.68
13974;BME280;7060;43.770;4.008;2022-12-07T13:04:40;100797.81;;;7.78;52.79
13974;BME280;7060;43.770;4.008;2022-12-07T13:07:57;100795.88;;;7.80;53.00
13974;BME280;7060;43.770;4.008;2022-12-07T13:10:47;100790.81;;;7.77;52.25
13974;BME280;7060;43.770;4.008;2022-12-07T13:13:35;100790.69;;;7.79;53.07
13974;BME280;7060;43.770;4.008;2022-12-07T13:22:41;100759.59;;;7.79;53.26
13974;BME280;7060;43.770;4.008;2022-12-07T13:25:18;100761.88;;;7.84;54.38
13974;BME280;7060;43.770;4.008;2022-12-07T13:27:54;100722.78;;;7.64;53.14
13974;BME280;7060;43.770;4.008;2022-12-07T13:30:24;100757.91;;;7.78;54.09
13974;BME280;7060;43.770;4.008;2022-12-07T13:32:54;100758.50;;;7.82;53.38
13974;BME280;7060;43.770;4.008;2022-12-07T13:35:34;100743.75;;;7.78;54.10
13974;BME280;7060;43.770;4.008;2022-12-07T13:38:13;100755.31;;;7.88;54.73
13974;BME280;7060;43.770;4.008;2022-12-07T13:40:59;100740.56;;;7.84;54.39
13974;BME280;7060;43.770;4.008;2022-12-07T13:43:28;100749.41;;;7.85;54.20
13974;BME280;7060;43.770;4.008;2022-12-07T13:45:57;100742.53;;;7.82;54.20
13974;BME280;7060;43.770;4.008;2022-12-07T13:48:31;100743.50;;;7.81;54.09
13974;BME280;7060;43.770;4.008;2022-12-07T13:51:02;100745.56;;;7.77;53.82
13974;BME280;7060;43.770;4.008;2022-12-07T13:53:31;100738.41;;;7.78;55.22
13974;BME280;7060;43.770;4.008;2022-12-07T13:56:01;100739.00;;;7.81;54.06
13974;BME280;7060;43.770;4.008;2022-12-07T13:58:31;100735.03;;;7.76;54.25
13974;BME280;7060;43.770;4.008;2022-12-07T14:01:01;100733.38;;;7.75;54.17